createdAt,value
2018-11-03T00:01:01.352Z,15.60
2018-11-03T00:03:32.103Z,15.60
2018-11-03T00:06:04.132Z,15.60
2018-11-03T00:17:58.220Z,15.70
2018-11-03T00:20:29.115Z,15.70
2018-11-03T00:22:59.603Z,15.70
2018-11-03T00:25:30.392Z,15.80
2018-11-03T00:28:01.257Z,15.80
2018-11-03T00:30:32.020Z,15.80
2018-11-03T00:33:02.738Z,15.70
2018-11-03T00:35:33.743Z,15.70
2018-11-03T00:38:06.239Z,15.70
2018-11-03T00:40:37.078Z,15.70
2018-11-03T00:43:11.051Z,15.70
2018-11-03T00:45:42.344Z,15.70
2018-11-03T00:48:13.039Z,15.70
2018-11-03T00:50:43.554Z,15.70
2018-11-03T00:53:18.264Z,15.70
2018-11-03T00:55:49.012Z,15.80
2018-11-03T00:58:20.764Z,15.70
2018-11-03T01:00:53.223Z,15.70
2018-11-03T01:03:26.117Z,15.70
2018-11-03T01:05:58.189Z,15.70
2018-11-03T01:08:29.211Z,15.80
2018-11-03T01:11:00.379Z,15.70
2018-11-03T01:13:33.044Z,15.70
2018-11-03T01:16:04.600Z,15.70
2018-11-03T01:18:36.015Z,15.70
2018-11-03T01:21:08.610Z,15.70
2018-11-03T01:23:39.410Z,15.60
2018-11-03T01:26:10.796Z,15.60
2018-11-03T01:28:43.931Z,15.70
2018-11-03T01:31:14.744Z,15.70
2018-11-03T01:33:47.336Z,15.60
2018-11-03T01:36:18.263Z,15.60
2018-11-03T01:38:51.041Z,15.60
2018-11-03T01:41:22.610Z,15.60
2018-11-03T01:43:54.300Z,15.60
2018-11-03T01:46:24.923Z,15.60
2018-11-03T01:48:55.544Z,15.60
2018-11-03T01:51:33.851Z,15.70
2018-11-03T01:54:05.652Z,15.60
2018-11-03T01:56:38.708Z,15.60
2018-11-03T01:59:13.071Z,15.60
2018-11-03T02:01:44.191Z,15.60
2018-11-03T02:04:16.248Z,15.60
2018-11-03T02:06:46.984Z,15.60
2018-11-03T02:09:21.905Z,15.60
2018-11-03T02:11:54.313Z,15.60
2018-11-03T02:14:25.015Z,15.60
2018-11-03T02:20:05.970Z,15.60
2018-11-03T02:22:40.992Z,15.60
2018-11-03T02:25:12.105Z,15.60
2018-11-03T02:27:44.178Z,15.60
2018-11-03T02:30:14.831Z,15.70
2018-11-03T02:32:46.300Z,15.70
2018-11-03T02:35:16.872Z,15.70
2018-11-03T02:37:50.308Z,15.70
2018-11-03T02:40:23.530Z,15.70
2018-11-03T02:42:54.383Z,15.70
2018-11-03T02:45:25.171Z,15.70
2018-11-03T02:47:55.818Z,15.70
2018-11-03T02:50:26.540Z,15.70
2018-11-03T02:53:01.436Z,15.70
2018-11-03T02:55:32.163Z,15.70
2018-11-03T02:58:02.678Z,15.70
2018-11-03T03:00:34.691Z,15.70
2018-11-03T03:03:06.630Z,15.60
2018-11-03T03:05:41.855Z,15.70
2018-11-03T03:08:14.832Z,15.70
2018-11-03T03:10:45.673Z,15.60
2018-11-03T03:13:18.690Z,15.60
2018-11-03T03:15:52.370Z,15.60
2018-11-03T03:18:27.745Z,15.70
2018-11-03T03:20:59.369Z,15.70
2018-11-03T03:23:29.969Z,15.70
2018-11-03T03:26:01.506Z,15.70
2018-11-03T03:28:33.164Z,15.60
2018-11-03T03:31:03.899Z,15.70
2018-11-03T03:33:36.516Z,15.70
2018-11-03T03:36:08.526Z,15.70
2018-11-03T03:38:40.036Z,15.70
2018-11-03T03:41:10.609Z,15.70
2018-11-03T03:43:42.140Z,15.70
2018-11-03T03:46:12.730Z,15.70
2018-11-03T03:48:43.459Z,15.70
2018-11-03T03:51:16.554Z,15.60
2018-11-03T03:53:47.154Z,15.70
2018-11-03T03:56:19.068Z,15.60
2018-11-03T03:58:51.707Z,15.60
2018-11-03T04:01:26.061Z,15.60
2018-11-03T04:03:57.913Z,15.60
2018-11-03T04:06:31.053Z,15.60
2018-11-03T04:09:01.699Z,15.60
2018-11-03T04:11:34.108Z,15.60
2018-11-03T04:14:05.139Z,15.60
2018-11-03T04:16:35.779Z,15.60
2018-11-03T04:19:10.031Z,15.60
2018-11-03T04:21:41.651Z,15.60
2018-11-03T04:24:15.135Z,15.60
2018-11-03T04:26:47.646Z,15.60
2018-11-03T04:29:18.648Z,15.60
2018-11-03T04:31:51.126Z,15.60
2018-11-03T04:34:21.646Z,15.60
2018-11-03T04:37:00.386Z,15.60
2018-11-03T04:39:32.102Z,15.50
2018-11-03T04:42:12.106Z,15.50
2018-11-03T04:44:43.566Z,15.60
2018-11-03T04:47:14.363Z,15.50
2018-11-03T04:49:44.987Z,15.50
2018-11-03T04:52:15.668Z,15.50
2018-11-03T04:54:46.139Z,15.50
2018-11-03T04:57:16.629Z,15.50
2018-11-03T04:59:48.335Z,15.50
2018-11-03T05:02:43.159Z,15.40
2018-11-03T05:05:16.023Z,15.50
2018-11-03T05:07:47.874Z,15.40
2018-11-03T05:10:18.564Z,15.40
2018-11-03T05:12:50.603Z,15.40
2018-11-03T05:15:21.301Z,15.40
2018-11-03T05:17:52.891Z,15.50
2018-11-03T05:20:23.396Z,15.40
2018-11-03T05:22:56.683Z,15.40
2018-11-03T05:25:30.670Z,15.30
2018-11-03T05:28:05.106Z,15.30
2018-11-03T05:30:36.751Z,15.20
2018-11-03T05:33:08.768Z,15.20
2018-11-03T05:35:39.495Z,15.20
2018-11-03T05:38:11.180Z,15.10
2018-11-03T05:40:43.255Z,15.10
2018-11-03T05:43:15.390Z,15.10
2018-11-03T05:45:48.139Z,15.10
2018-11-03T05:48:21.722Z,15.10
2018-11-03T05:50:52.217Z,15.10
2018-11-03T05:53:25.474Z,15.00
2018-11-03T05:55:55.907Z,15.00
2018-11-03T05:58:26.332Z,15.00
2018-11-03T06:00:56.737Z,15.00
2018-11-03T06:03:28.535Z,15.00
2018-11-03T06:06:01.137Z,15.00
2018-11-03T06:08:31.618Z,15.00
2018-11-03T06:11:02.292Z,15.00
2018-11-03T06:13:33.602Z,15.00
2018-11-03T06:16:03.970Z,15.00
2018-11-03T06:18:34.437Z,15.00
2018-11-03T06:21:05.001Z,15.10
2018-11-03T06:23:37.064Z,15.10
2018-11-03T06:26:08.076Z,15.10
2018-11-03T06:28:39.396Z,15.10
2018-11-03T06:31:10.214Z,15.20
2018-11-03T06:33:41.049Z,15.30
2018-11-03T06:36:11.650Z,15.30
2018-11-03T06:38:43.414Z,15.30
2018-11-03T06:41:13.831Z,15.40
2018-11-03T06:43:44.241Z,15.40
2018-11-03T06:46:14.954Z,15.50
2018-11-03T06:48:46.139Z,15.50
2018-11-03T06:51:16.644Z,15.50
2018-11-03T06:53:47.170Z,15.60
2018-11-03T06:56:18.675Z,15.60
2018-11-03T06:58:49.594Z,15.60
2018-11-03T07:01:20.259Z,15.70
2018-11-03T07:03:53.156Z,15.80
2018-11-03T07:06:27.461Z,15.80
2018-11-03T07:09:01.313Z,15.80
2018-11-03T07:11:31.917Z,15.90
2018-11-03T07:14:02.796Z,16.00
2018-11-03T07:16:33.259Z,16.00
2018-11-03T07:19:03.907Z,16.20
2018-11-03T07:21:35.344Z,16.30
2018-11-03T07:24:06.062Z,16.30
2018-11-03T07:26:36.478Z,16.50
2018-11-03T07:29:07.048Z,16.60
2018-11-03T07:31:37.459Z,16.60
2018-11-03T07:34:08.425Z,16.70
2018-11-03T07:36:38.868Z,16.80
2018-11-03T07:39:10.269Z,16.80
2018-11-03T07:41:41.886Z,16.90
2018-11-03T07:44:13.066Z,17.00
2018-11-03T07:46:43.511Z,17.20
2018-11-03T07:49:17.548Z,17.30
2018-11-03T07:51:48.871Z,17.50
2018-11-03T07:54:20.750Z,17.70
2018-11-03T07:56:51.299Z,17.70
2018-11-03T07:59:21.717Z,17.70
2018-11-03T08:01:53.072Z,17.80
2018-11-03T08:04:23.835Z,17.90
2018-11-03T08:06:54.235Z,17.90
2018-11-03T08:09:24.640Z,18.00
2018-11-03T08:11:55.059Z,18.10
2018-11-03T08:14:27.865Z,18.20
2018-11-03T08:16:58.399Z,18.30
2018-11-03T08:19:28.938Z,18.20
2018-11-03T08:21:59.315Z,18.20
2018-11-03T08:24:30.914Z,18.10
2018-11-03T08:27:01.802Z,18.00
2018-11-03T08:29:32.286Z,18.10
2018-11-03T08:32:02.833Z,18.10
2018-11-03T08:34:34.071Z,18.20
2018-11-03T08:37:04.537Z,18.30
2018-11-03T08:39:35.176Z,18.40
2018-11-03T08:42:07.080Z,18.60
2018-11-03T08:44:37.578Z,18.80
2018-11-03T08:47:08.215Z,19.00
2018-11-03T08:49:38.910Z,19.10
2018-11-03T08:52:09.425Z,19.20
2018-11-03T08:54:40.114Z,19.20
2018-11-03T08:57:10.618Z,19.20
2018-11-03T08:59:41.293Z,19.10
2018-11-03T09:02:11.682Z,19.00
2018-11-03T09:04:42.428Z,19.00
2018-11-03T09:07:13.258Z,19.00
2018-11-03T09:09:44.041Z,19.00
2018-11-03T09:12:14.754Z,19.10
2018-11-03T09:14:45.388Z,19.20
2018-11-03T09:17:16.755Z,19.50
2018-11-03T09:19:47.594Z,19.70
2018-11-03T09:22:18.340Z,19.80
2018-11-03T09:24:49.868Z,19.90
2018-11-03T09:27:22.380Z,20.20
2018-11-03T09:29:52.972Z,20.30
2018-11-03T09:32:23.676Z,20.20
2018-11-03T09:34:55.773Z,20.40
2018-11-03T09:37:26.371Z,20.70
2018-11-03T09:39:57.344Z,21.20
2018-11-03T09:42:28.091Z,21.60
2018-11-03T09:44:58.897Z,22.20
2018-11-03T09:47:29.867Z,22.70
2018-11-03T09:50:00.393Z,23.10
2018-11-03T09:52:30.919Z,23.50
2018-11-03T09:55:02.487Z,23.70
2018-11-03T09:57:32.938Z,23.70
2018-11-03T10:00:03.421Z,23.70
2018-11-03T10:02:33.855Z,23.90
2018-11-03T10:05:05.511Z,24.10
2018-11-03T10:07:36.176Z,24.20
2018-11-03T10:10:10.041Z,24.30
2018-11-03T10:12:40.792Z,24.20
2018-11-03T10:15:12.403Z,24.20
2018-11-03T10:17:44.358Z,24.10
2018-11-03T10:20:18.698Z,24.00
2018-11-03T10:22:50.506Z,24.10
2018-11-03T10:25:20.963Z,24.20
2018-11-03T10:27:51.524Z,24.30
2018-11-03T10:30:26.460Z,24.20
2018-11-03T10:32:57.802Z,23.80
2018-11-03T10:35:28.709Z,24.20
2018-11-03T10:37:59.848Z,24.30
2018-11-03T10:40:33.027Z,24.60
2018-11-03T10:43:04.940Z,24.90
2018-11-03T10:45:35.647Z,25.00
2018-11-03T10:48:07.524Z,25.20
2018-11-03T10:50:41.578Z,25.30
2018-11-03T10:53:12.804Z,25.20
2018-11-03T10:55:56.550Z,25.20
2018-11-03T10:58:27.602Z,24.70
2018-11-03T11:01:05.573Z,24.10
2018-11-03T11:03:44.743Z,24.40
2018-11-03T11:06:20.652Z,24.50
2018-11-03T11:08:57.504Z,24.50
2018-11-03T11:11:35.761Z,24.60
2018-11-03T11:14:08.020Z,24.60
2018-11-03T11:16:38.853Z,24.60
2018-11-03T11:19:10.900Z,24.60
2018-11-03T11:21:42.527Z,24.70
2018-11-03T11:24:14.220Z,24.70
2018-11-03T11:26:45.940Z,24.90
2018-11-03T11:29:17.847Z,25.10
2018-11-03T11:31:49.704Z,25.10
2018-11-03T11:34:20.262Z,25.20
2018-11-03T11:36:51.814Z,25.40
2018-11-03T11:39:22.794Z,25.60
2018-11-03T11:41:55.561Z,25.50
2018-11-03T11:44:28.832Z,25.40
2018-11-03T11:46:59.575Z,25.40
2018-11-03T11:49:30.771Z,25.20
2018-11-03T11:52:02.452Z,25.20
2018-11-03T11:54:33.080Z,25.30
2018-11-03T11:57:06.449Z,25.40
2018-11-03T11:59:37.878Z,25.50
2018-11-03T12:02:08.811Z,25.70
2018-11-03T12:04:39.486Z,25.50
2018-11-03T12:07:12.279Z,25.60
2018-11-03T12:09:43.060Z,25.60
2018-11-03T12:12:14.003Z,25.60
2018-11-03T12:14:44.797Z,25.60
2018-11-03T12:17:15.562Z,25.70
2018-11-03T12:19:46.241Z,25.70
2018-11-03T12:22:18.212Z,25.90
2018-11-03T12:24:49.078Z,25.90
2018-11-03T12:27:39.970Z,26.10
2018-11-03T12:30:13.670Z,25.90
2018-11-03T12:32:44.492Z,25.90
2018-11-03T12:35:15.004Z,25.90
2018-11-03T12:37:46.936Z,25.80
2018-11-03T12:40:18.476Z,25.90
2018-11-03T12:42:50.144Z,25.80
2018-11-03T12:45:21.203Z,25.70
2018-11-03T12:47:52.237Z,25.80
2018-11-03T12:50:23.120Z,25.80
2018-11-03T12:52:54.597Z,25.70
2018-11-03T12:55:25.731Z,25.90
2018-11-03T12:57:56.390Z,25.80
2018-11-03T13:00:27.054Z,25.70
2018-11-03T13:02:57.810Z,25.70
2018-11-03T13:05:29.493Z,25.80
2018-11-03T13:08:03.568Z,25.70
2018-11-03T13:10:34.399Z,25.60
2018-11-03T13:13:12.395Z,25.60
2018-11-03T13:15:42.824Z,25.50
2018-11-03T13:18:14.790Z,25.40
2018-11-03T13:20:45.439Z,25.30
2018-11-03T13:23:19.865Z,25.30
2018-11-03T13:25:50.366Z,25.20
2018-11-03T13:28:21.854Z,25.00
2018-11-03T13:30:52.830Z,24.90
2018-11-03T13:33:24.736Z,24.80
2018-11-03T13:35:55.676Z,24.60
2018-11-03T13:38:26.438Z,24.70
2018-11-03T13:41:01.903Z,24.70
2018-11-03T13:43:32.660Z,24.80
2018-11-03T13:46:03.335Z,24.60
2018-11-03T13:48:34.105Z,24.50
2018-11-03T13:51:06.587Z,24.50
2018-11-03T13:53:39.198Z,24.40
2018-11-03T13:56:09.903Z,24.30
2018-11-03T13:58:42.684Z,24.20
2018-11-03T14:01:13.580Z,24.10
2018-11-03T14:03:48.056Z,24.00
2018-11-03T14:06:20.559Z,24.00
2018-11-03T14:08:56.875Z,24.00
2018-11-03T14:11:27.759Z,24.00
2018-11-03T14:13:58.335Z,24.00
2018-11-03T14:16:32.740Z,24.00
2018-11-03T14:19:04.214Z,23.90
2018-11-03T14:21:38.160Z,23.90
2018-11-03T14:24:11.336Z,23.80
2018-11-03T14:26:41.833Z,23.70
2018-11-03T14:29:14.472Z,23.70
2018-11-03T14:31:45.136Z,23.70
2018-11-03T14:34:17.952Z,23.50
2018-11-03T14:36:51.404Z,23.40
2018-11-03T14:39:25.525Z,23.30
2018-11-03T14:41:56.750Z,23.40
2018-11-03T14:44:31.910Z,23.30
2018-11-03T14:47:05.281Z,23.20
2018-11-03T14:49:37.500Z,23.00
2018-11-03T14:52:09.216Z,22.90
2018-11-03T14:54:40.454Z,22.80
2018-11-03T14:57:12.926Z,22.80
2018-11-03T14:59:46.093Z,22.60
2018-11-03T15:02:17.468Z,22.50
2018-11-03T15:04:49.460Z,22.40
2018-11-03T15:07:22.088Z,22.30
2018-11-03T15:09:52.519Z,22.20
2018-11-03T15:12:24.289Z,22.10
2018-11-03T15:14:54.827Z,22.10
2018-11-03T15:17:27.953Z,21.90
2018-11-03T15:20:08.199Z,21.80
2018-11-03T15:22:40.607Z,21.80
2018-11-03T15:25:11.556Z,21.60
2018-11-03T15:27:42.801Z,21.50
2018-11-03T15:30:14.665Z,21.40
2018-11-03T15:32:45.451Z,21.30
2018-11-03T15:35:16.176Z,21.20
2018-11-03T15:37:47.478Z,21.10
2018-11-03T15:40:18.510Z,21.00
2018-11-03T15:42:50.168Z,20.90
2018-11-03T15:45:23.439Z,20.80
2018-11-03T15:47:55.944Z,20.70
2018-11-03T15:50:30.238Z,20.60
2018-11-03T15:53:01.566Z,20.60
2018-11-03T15:55:33.997Z,20.60
2018-11-03T15:58:05.477Z,20.50
2018-11-03T16:00:36.313Z,20.40
2018-11-03T16:03:07.345Z,20.30
2018-11-03T16:05:38.485Z,20.40
2018-11-03T16:08:09.622Z,20.30
2018-11-03T16:10:42.574Z,20.30
2018-11-03T16:13:13.331Z,20.30
2018-11-03T16:15:45.274Z,20.20
2018-11-03T16:18:17.520Z,20.10
2018-11-03T16:20:49.733Z,20.00
2018-11-03T16:23:20.822Z,19.90
2018-11-03T16:25:54.791Z,19.80
2018-11-03T16:31:33.622Z,19.60
2018-11-03T16:34:05.557Z,19.50
2018-11-03T16:36:36.692Z,19.40
2018-11-03T16:39:12.687Z,19.30
2018-11-03T16:41:43.448Z,19.20
2018-11-03T16:44:15.301Z,19.10
2018-11-03T16:46:46.988Z,19.00
2018-11-03T16:49:21.816Z,18.90
2018-11-03T16:51:55.052Z,18.90
2018-11-03T16:54:29.560Z,18.90
2018-11-03T16:57:00.994Z,19.00
2018-11-03T16:59:32.652Z,18.80
2018-11-03T17:02:04.268Z,18.70
2018-11-03T17:04:35.358Z,18.60
2018-11-03T17:07:07.350Z,18.40
2018-11-03T17:09:39.524Z,18.40
2018-11-03T17:12:10.809Z,18.30
2018-11-03T17:14:42.577Z,18.30
2018-11-03T17:17:13.480Z,18.20
2018-11-03T17:19:44.464Z,18.20
2018-11-03T17:22:15.669Z,18.00
2018-11-03T17:24:46.520Z,17.80
2018-11-03T17:27:17.468Z,17.80
2018-11-03T17:29:48.423Z,17.70
2018-11-03T17:32:19.648Z,17.60
2018-11-03T17:34:52.464Z,17.60
2018-11-03T17:37:24.386Z,17.60
2018-11-03T17:39:55.322Z,17.50
2018-11-03T17:42:26.624Z,17.50
2018-11-03T17:44:59.442Z,17.50
2018-11-03T17:47:30.242Z,17.30
2018-11-03T17:50:01.048Z,17.20
2018-11-03T17:52:32.377Z,17.20
2018-11-03T17:55:03.290Z,17.10
2018-11-03T17:57:35.604Z,17.10
2018-11-03T18:00:09.817Z,16.90
2018-11-03T18:02:41.290Z,16.80
2018-11-03T18:05:13.488Z,16.70
2018-11-03T18:07:45.644Z,16.70
2018-11-03T18:10:18.500Z,16.70
2018-11-03T18:12:49.984Z,16.70
2018-11-03T18:15:21.097Z,16.80
2018-11-03T18:17:53.911Z,16.80
2018-11-03T18:20:24.659Z,16.80
2018-11-03T18:22:57.706Z,16.70
2018-11-03T18:25:29.090Z,16.70
2018-11-03T18:28:00.094Z,16.70
2018-11-03T18:30:34.407Z,16.70
2018-11-03T18:33:05.960Z,16.70
2018-11-03T18:35:39.062Z,16.50
2018-11-03T18:38:14.887Z,16.50
2018-11-03T18:40:47.056Z,16.60
2018-11-03T18:43:18.646Z,16.60
2018-11-03T18:45:52.828Z,16.60
2018-11-03T18:48:24.257Z,16.50
2018-11-03T18:50:55.973Z,16.40
2018-11-03T18:53:26.809Z,16.40
2018-11-03T18:55:58.416Z,16.50
2018-11-03T18:58:29.244Z,16.40
2018-11-03T19:01:00.104Z,16.30
2018-11-03T19:03:30.934Z,16.40
2018-11-03T19:06:02.672Z,16.40
2018-11-03T19:08:34.710Z,16.40
2018-11-03T19:11:05.678Z,16.30
2018-11-03T19:13:36.724Z,16.30
2018-11-03T19:16:07.766Z,16.20
2018-11-03T19:18:42.159Z,16.30
2018-11-03T19:21:13.083Z,16.20
2018-11-03T19:23:44.849Z,16.20
2018-11-03T19:26:16.374Z,16.20
2018-11-03T19:28:47.061Z,16.10
2018-11-03T19:31:17.867Z,16.10
2018-11-03T19:33:48.864Z,16.10
2018-11-03T19:36:19.876Z,16.00
2018-11-03T19:38:52.217Z,16.00
2018-11-03T19:41:26.246Z,16.10
2018-11-03T19:43:57.956Z,16.10
2018-11-03T19:46:29.250Z,16.00
2018-11-03T19:49:00.557Z,16.00
2018-11-03T19:51:31.837Z,16.00
2018-11-03T19:54:03.507Z,16.00
2018-11-03T19:56:35.279Z,16.00
2018-11-03T19:59:06.248Z,16.10
2018-11-03T20:01:36.968Z,16.00
2018-11-03T20:04:08.145Z,16.00
2018-11-03T20:06:39.555Z,16.00
2018-11-03T20:09:12.780Z,16.00
2018-11-03T20:11:46.082Z,15.90
2018-11-03T20:14:17.125Z,15.90
2018-11-03T20:16:50.708Z,15.90
2018-11-03T20:19:21.984Z,15.90
2018-11-03T20:21:53.283Z,15.80
2018-11-03T20:24:24.618Z,15.80
2018-11-03T20:26:55.385Z,15.80
2018-11-03T20:29:26.688Z,15.80
2018-11-03T20:35:05.179Z,15.70
2018-11-03T20:37:38.661Z,15.70
2018-11-03T20:40:11.310Z,15.60
2018-11-03T20:42:42.261Z,15.60
2018-11-03T20:45:13.526Z,15.50
2018-11-03T20:47:47.879Z,15.50
2018-11-03T20:50:20.371Z,15.40
2018-11-03T20:52:51.582Z,15.40
2018-11-03T20:55:22.644Z,15.40
2018-11-03T20:57:53.299Z,15.30
2018-11-03T21:00:25.321Z,15.20
2018-11-03T21:02:56.547Z,15.20
2018-11-03T21:05:28.789Z,15.20
2018-11-03T21:07:59.734Z,15.20
2018-11-03T21:10:32.382Z,15.20
2018-11-03T21:13:03.414Z,15.20
2018-11-03T21:15:34.403Z,15.10
2018-11-03T21:18:06.892Z,15.10
2018-11-03T21:20:39.575Z,15.10
2018-11-03T21:23:10.397Z,15.00
2018-11-03T21:25:49.886Z,14.90
2018-11-03T21:28:21.486Z,14.90
2018-11-03T21:30:53.213Z,14.80
2018-11-03T21:33:25.400Z,14.80
2018-11-03T21:35:57.793Z,14.80
2018-11-03T21:38:30.757Z,14.90
2018-11-03T21:41:01.521Z,14.80
2018-11-03T21:43:33.687Z,14.80
2018-11-03T21:46:04.670Z,14.80
2018-11-03T21:48:35.571Z,14.70
2018-11-03T21:51:06.558Z,14.70
2018-11-03T21:53:37.280Z,14.70
2018-11-03T21:56:09.135Z,14.60
2018-11-03T21:58:39.978Z,14.60
2018-11-03T22:01:12.060Z,14.60
2018-11-03T22:03:43.923Z,14.60
2018-11-03T22:06:14.788Z,14.60
2018-11-03T22:08:46.377Z,14.60
2018-11-03T22:11:18.607Z,14.60
2018-11-03T22:13:49.907Z,14.50
2018-11-03T22:16:22.914Z,14.50
2018-11-03T22:18:54.076Z,14.40
2018-11-03T22:21:25.867Z,14.40
2018-11-03T22:23:59.413Z,14.40
2018-11-03T22:26:30.613Z,14.40
2018-11-03T22:29:02.672Z,14.40
2018-11-03T22:31:34.320Z,14.40
2018-11-03T22:37:13.112Z,14.30
2018-11-03T22:39:43.984Z,14.30
2018-11-03T22:42:16.009Z,14.30
2018-11-03T22:44:46.987Z,14.30
2018-11-03T22:47:17.942Z,14.30
2018-11-03T22:49:48.971Z,14.30
2018-11-03T22:52:20.333Z,14.20
2018-11-03T22:54:51.145Z,14.20
2018-11-03T22:57:22.780Z,14.20
2018-11-03T22:59:54.198Z,14.20
2018-11-03T23:02:25.069Z,14.20
2018-11-03T23:04:59.411Z,14.10
2018-11-03T23:07:30.994Z,14.10
2018-11-03T23:10:01.767Z,14.10
2018-11-03T23:12:34.823Z,14.10
2018-11-03T23:15:07.015Z,14.10
2018-11-03T23:17:37.762Z,14.10
2018-11-03T23:20:12.302Z,14.00
2018-11-03T23:22:43.247Z,14.10
2018-11-03T23:25:14.866Z,14.10
2018-11-03T23:27:46.342Z,14.10
2018-11-03T23:30:17.227Z,14.00
2018-11-03T23:32:48.132Z,14.00
2018-11-03T23:35:19.035Z,13.90
2018-11-03T23:37:49.783Z,13.90
2018-11-03T23:40:20.592Z,13.90
2018-11-03T23:42:53.625Z,13.80
2018-11-03T23:45:24.640Z,13.80
2018-11-03T23:47:55.588Z,13.70
2018-11-03T23:50:26.582Z,13.70
2018-11-03T23:52:59.128Z,13.70
2018-11-03T23:55:29.923Z,13.70
2018-11-03T23:58:00.906Z,13.60
